Time;durP1;ratioP1;P1;durP2;ratioP2;P2;SDS_P1;SDS_P2;PMS_P1;PMS_P2;Temp;Humidity;BMP_temperature;BMP_pressure;BME280_temperature;BME280_humidity;BME280_pressure;Samples;Min_cycle;Max_cycle;Signal;HPM_P1;HPM_P2
2023/02/03 00:00:07;;;;;;;12.97;5.73;;;9.70;99.90;;;;;;4972057;28;20436;-89
2023/02/03 00:02:36;;;;;;;11.00;5.73;;;9.70;99.90;;;;;;4970401;28;20630;-90
2023/02/03 00:05:02;;;;;;;14.17;7.87;;;9.70;99.90;;;;;;4972153;28;20467;-89
2023/02/03 00:07:27;;;;;;;7.70;4.90;;;9.70;99.90;;;;;;4986924;28;20441;-89
2023/02/03 00:09:56;;;;;;;15.67;6.20;;;9.70;99.90;;;;;;4968950;28;20436;-89
2023/02/03 00:12:30;;;;;;;12.13;5.30;;;9.70;99.90;;;;;;4971727;28;20632;-90
2023/02/03 00:14:58;;;;;;;8.60;5.07;;;9.70;99.90;;;;;;4972491;28;20470;-90
2023/02/03 00:17:24;;;;;;;10.10;6.00;;;9.70;99.90;;;;;;4973669;28;20915;-90
2023/02/03 00:19:53;;;;;;;9.23;5.10;;;9.70;99.90;;;;;;4973313;28;20482;-90
2023/02/03 00:22:21;;;;;;;13.10;5.40;;;9.70;99.90;;;;;;4969751;28;20213;-90
2023/02/03 00:24:49;;;;;;;12.67;4.57;;;9.70;99.90;;;;;;4970404;28;20491;-90
2023/02/03 00:27:15;;;;;;;9.73;4.83;;;9.70;99.90;;;;;;4972038;28;20523;-91
2023/02/03 00:29:44;;;;;;;12.80;5.43;;;9.70;99.90;;;;;;4974563;28;20971;-88
2023/02/03 00:32:13;;;;;;;10.00;5.17;;;9.70;99.90;;;;;;4977655;28;20592;-88
2023/02/03 00:34:44;;;;;;;9.70;5.30;;;9.70;99.90;;;;;;4974281;28;20547;-90
2023/02/03 00:37:12;;;;;;;12.00;5.40;;;9.70;99.90;;;;;;4968681;28;20869;-91
2023/02/03 00:39:38;;;;;;;7.57;4.23;;;9.70;99.90;;;;;;4972296;28;20495;-90
2023/02/03 00:42:05;;;;;;;5.73;4.40;;;9.70;99.90;;;;;;4974210;28;20465;-90
2023/02/03 00:44:33;;;;;;;10.97;5.07;;;9.70;99.90;;;;;;4970708;28;20456;-90
2023/02/03 00:46:59;;;;;;;13.73;4.37;;;9.70;99.90;;;;;;4971201;28;20459;-89
2023/02/03 00:49:24;;;;;;;8.73;5.50;;;9.70;99.90;;;;;;4970340;28;20520;-89
2023/02/03 00:51:51;;;;;;;12.73;4.57;;;9.70;99.90;;;;;;4971462;28;20875;-90
2023/02/03 00:54:17;;;;;;;7.47;4.37;;;9.70;99.90;;;;;;4971006;28;20251;-90
2023/02/03 00:56:45;;;;;;;6.80;5.03;;;9.70;99.90;;;;;;4970490;28;20570;-88
2023/02/03 00:59:14;;;;;;;11.40;5.80;;;9.70;99.90;;;;;;4972622;28;20447;-90
2023/02/03 01:01:39;;;;;;;10.00;4.10;;;9.80;99.90;;;;;;4972784;28;20443;-90
2023/02/03 01:04:05;;;;;;;8.20;4.37;;;9.80;99.90;;;;;;4972141;28;20459;-89
2023/02/03 01:06:31;;;;;;;9.87;4.10;;;9.70;99.90;;;;;;4970731;28;20215;-90
2023/02/03 01:09:01;;;;;;;11.10;5.30;;;9.80;99.90;;;;;;4975665;28;20229;-90
2023/02/03 01:11:30;;;;;;;9.53;4.70;;;9.80;99.90;;;;;;4970659;28;20271;-90
2023/02/03 01:13:59;;;;;;;10.20;4.67;;;9.80;99.90;;;;;;4970376;28;20462;-90
2023/02/03 01:16:29;;;;;;;6.10;3.70;;;9.80;99.90;;;;;;4974200;28;20463;-90
2023/02/03 01:18:56;;;;;;;10.60;5.00;;;9.80;99.90;;;;;;4969808;28;20435;-90
2023/02/03 01:21:26;;;;;;;9.47;4.60;;;9.80;99.90;;;;;;4971499;28;20801;-89
2023/02/03 01:23:52;;;;;;;7.63;4.77;;;9.80;99.90;;;;;;4970478;28;20982;-90
2023/02/03 01:26:25;;;;;;;6.40;4.27;;;9.80;99.90;;;;;;4972064;28;21041;-90
2023/02/03 01:28:59;;;;;;;11.50;4.70;;;9.80;99.90;;;;;;4971717;28;20809;-89
2023/02/03 01:31:34;;;;;;;10.50;4.13;;;9.80;99.90;;;;;;4967595;28;20451;-90
2023/02/03 01:34:00;;;;;;;18.00;5.10;;;9.80;99.90;;;;;;4971732;28;20489;-90
2023/02/03 01:36:27;;;;;;;10.87;4.87;;;9.80;99.90;;;;;;4963355;28;21148;-90
2023/02/03 01:38:53;;;;;;;10.47;5.00;;;9.80;99.90;;;;;;4962691;28;20436;-89
2023/02/03 01:41:22;;;;;;;6.60;3.77;;;9.80;99.90;;;;;;4972809;28;20530;-90
2023/02/03 01:43:50;;;;;;;10.27;4.27;;;9.70;99.90;;;;;;4975498;28;20455;-90
2023/02/03 01:46:36;;;;;;;12.97;4.97;;;9.80;99.90;;;;;;4970997;28;20470;-90
2023/02/03 01:49:15;;;;;;;11.03;4.10;;;9.80;99.90;;;;;;4970592;28;20927;-90
2023/02/03 01:51:45;;;;;;;9.53;4.53;;;9.80;99.90;;;;;;4970810;28;20522;-90
2023/02/03 01:54:25;;;;;;;8.70;6.17;;;9.80;99.90;;;;;;4973003;28;20527;-90
2023/02/03 01:56:55;;;;;;;12.43;4.20;;;9.80;99.90;;;;;;4970448;28;20492;-90
2023/02/03 01:59:28;;;;;;;8.73;4.23;;;9.80;99.90;;;;;;4970324;28;21010;-91
2023/02/03 02:01:58;;;;;;;10.47;4.27;;;9.70;99.90;;;;;;4966278;28;20801;-90
2023/02/03 02:04:34;;;;;;;14.17;4.43;;;9.70;99.90;;;;;;4967981;28;20463;-90
2023/02/03 02:07:04;;;;;;;12.07;3.90;;;9.70;99.90;;;;;;4969925;28;21053;-90
2023/02/03 02:09:29;;;;;;;11.10;4.00;;;9.70;99.90;;;;;;4971342;28;20482;-89
2023/02/03 02:11:58;;;;;;;9.60;4.10;;;9.70;99.90;;;;;;4970667;28;20439;-90
2023/02/03 02:14:29;;;;;;;11.43;3.80;;;9.70;99.90;;;;;;4969872;28;20204;-89
2023/02/03 02:17:08;;;;;;;10.23;4.30;;;9.70;99.90;;;;;;4971886;28;20435;-90
2023/02/03 02:20:14;;;;;;;9.03;3.73;;;9.70;99.90;;;;;;4969784;28;20455;-89
2023/02/03 02:23:10;;;;;;;11.30;4.30;;;9.70;99.90;;;;;;4986013;28;20431;-91
2023/02/03 02:25:47;;;;;;;8.17;4.43;;;9.70;99.90;;;;;;4995750;28;20462;-90
2023/02/03 02:28:43;;;;;;;9.17;4.37;;;9.70;99.90;;;;;;4980972;28;20465;-90
2023/02/03 02:31:17;;;;;;;8.67;4.20;;;9.70;99.90;;;;;;4965238;28;21033;-90
2023/02/03 02:34:05;;;;;;;11.70;4.87;;;9.70;99.90;;;;;;4974728;28;20509;-90
2023/02/03 02:36:50;;;;;;;11.73;4.90;;;9.70;99.90;;;;;;4968065;28;20450;-89
2023/02/03 02:39:25;;;;;;;16.93;4.97;;;9.70;99.90;;;;;;4971200;28;20439;-90
2023/02/03 02:42:06;;;;;;;8.23;4.93;;;9.70;99.90;;;;;;4972873;28;20779;-89
2023/02/03 02:44:50;;;;;;;9.10;4.70;;;9.70;99.90;;;;;;4972434;28;20459;-90
2023/02/03 02:47:22;;;;;;;14.20;5.57;;;9.70;99.90;;;;;;4969912;28;20453;-90
2023/02/03 02:49:58;;;;;;;12.27;4.67;;;9.70;99.90;;;;;;4970316;28;21026;-90
2023/02/03 02:52:34;;;;;;;7.57;4.70;;;9.70;99.90;;;;;;4966221;28;20446;-89
2023/02/03 02:55:13;;;;;;;8.17;4.90;;;9.70;99.90;;;;;;4969885;28;20459;-90
2023/02/03 02:57:43;;;;;;;12.00;4.80;;;9.70;99.90;;;;;;4968459;28;20456;-89
2023/02/03 03:00:10;;;;;;;11.17;4.27;;;9.70;99.90;;;;;;4967302;28;20447;-90
2023/02/03 03:02:38;;;;;;;11.70;5.13;;;9.70;99.90;;;;;;4974628;28;20436;-90
2023/02/03 03:05:10;;;;;;;11.90;5.30;;;9.80;99.90;;;;;;4970602;28;20845;-90
2023/02/03 03:08:07;;;;;;;8.03;4.43;;;9.80;99.90;;;;;;4977090;28;20429;-90
2023/02/03 03:10:42;;;;;;;12.63;4.70;;;9.70;99.90;;;;;;4969792;28;20451;-90
2023/02/03 03:13:14;;;;;;;12.00;5.03;;;9.70;99.90;;;;;;4973464;28;20430;-89
2023/02/03 03:15:44;;;;;;;12.43;5.03;;;9.70;99.90;;;;;;4975885;28;20436;-90
2023/02/03 03:18:18;;;;;;;8.70;6.10;;;9.70;99.90;;;;;;4976821;28;20432;-90
2023/02/03 03:20:48;;;;;;;7.80;5.10;;;9.70;99.90;;;;;;4975463;28;20446;-89
2023/02/03 03:23:21;;;;;;;10.70;5.50;;;9.70;99.90;;;;;;4974392;28;20497;-90
2023/02/03 03:25:53;;;;;;;11.37;5.50;;;9.70;99.90;;;;;;4974960;28;20525;-91
2023/02/03 03:28:26;;;;;;;8.33;5.57;;;9.70;99.90;;;;;;4971406;28;20439;-90
2023/02/03 03:30:55;;;;;;;12.13;5.10;;;9.70;99.90;;;;;;4971479;28;20434;-90
2023/02/03 03:33:22;;;;;;;9.13;4.90;;;9.70;99.90;;;;;;4973238;28;20851;-90
2023/02/03 03:36:41;;;;;;;14.33;6.10;;;9.70;99.90;;;;;;4975103;28;20443;-90
2023/02/03 03:39:27;;;;;;;11.10;5.20;;;9.70;99.90;;;;;;4963673;28;20634;-90
2023/02/03 03:42:17;;;;;;;14.60;5.50;;;9.60;99.90;;;;;;4973337;28;20801;-88
2023/02/03 03:44:56;;;;;;;11.33;4.77;;;9.60;99.90;;;;;;4971677;28;20499;-90
2023/02/03 03:48:01;;;;;;;8.77;4.80;;;9.60;99.90;;;;;;4973537;28;20439;-90
2023/02/03 03:50:54;;;;;;;10.17;4.33;;;9.60;99.90;;;;;;4983978;28;20514;-89
2023/02/03 03:53:22;;;;;;;12.43;4.03;;;9.60;99.90;;;;;;4969562;28;20473;-90
2023/02/03 03:55:50;;;;;;;8.27;4.60;;;9.60;99.90;;;;;;4973700;28;20466;-90
2023/02/03 03:58:30;;;;;;;17.30;5.73;;;9.60;99.90;;;;;;4972984;28;20470;-90
2023/02/03 04:01:04;;;;;;;5.03;3.97;;;9.60;99.90;;;;;;4970062;28;20470;-89
2023/02/03 04:03:46;;;;;;;10.10;4.60;;;9.60;99.90;;;;;;4970452;28;20542;-90
2023/02/03 04:06:12;;;;;;;17.20;5.00;;;9.60;99.90;;;;;;4967390;28;20494;-90
2023/02/03 04:08:40;;;;;;;9.80;4.20;;;9.60;99.90;;;;;;4976150;28;20475;-89
2023/02/03 04:11:09;;;;;;;10.83;5.13;;;9.60;99.90;;;;;;4986625;28;20812;-90
2023/02/03 04:13:35;;;;;;;7.43;4.10;;;9.60;99.90;;;;;;4972219;28;20467;-90
2023/02/03 04:16:01;;;;;;;7.40;3.70;;;9.60;99.90;;;;;;4970179;28;20439;-90
2023/02/03 04:18:46;;;;;;;11.53;4.13;;;9.60;99.90;;;;;;4971751;28;20223;-90
2023/02/03 04:21:12;;;;;;;9.20;4.70;;;9.60;99.90;;;;;;4972761;28;20254;-91
2023/02/03 04:23:43;;;;;;;8.83;3.87;;;9.60;99.90;;;;;;4970283;28;20987;-88
2023/02/03 04:26:14;;;;;;;7.97;4.30;;;9.60;99.90;;;;;;4974225;28;20236;-89
2023/02/03 04:28:42;;;;;;;11.57;4.50;;;9.60;99.90;;;;;;4971991;28;20854;-89
2023/02/03 04:31:07;;;;;;;13.40;4.87;;;9.60;99.90;;;;;;4975602;28;20428;-90
2023/02/03 04:33:33;;;;;;;9.57;3.80;;;9.60;99.90;;;;;;4970265;28;20628;-90
2023/02/03 04:35:58;;;;;;;9.43;4.33;;;9.70;99.90;;;;;;4973420;28;20271;-90
2023/02/03 04:38:27;;;;;;;13.93;4.50;;;9.70;99.90;;;;;;4988053;28;20190;-90
2023/02/03 04:40:52;;;;;;;7.70;4.53;;;9.60;99.90;;;;;;4972617;28;20184;-90
2023/02/03 04:43:18;;;;;;;15.10;3.77;;;9.70;99.90;;;;;;4972974;28;20439;-90
2023/02/03 04:45:46;;;;;;;13.77;4.10;;;9.70;99.90;;;;;;4972023;28;20719;-90
2023/02/03 04:48:12;;;;;;;11.17;4.40;;;9.60;99.90;;;;;;4975121;28;20184;-90
2023/02/03 04:50:37;;;;;;;12.00;4.23;;;9.70;99.90;;;;;;4969889;28;20499;-90
2023/02/03 04:53:03;;;;;;;14.80;4.13;;;9.70;99.90;;;;;;4970287;28;20235;-91
2023/02/03 04:55:28;;;;;;;5.63;3.87;;;9.70;99.90;;;;;;4972583;28;20226;-90
2023/02/03 04:58:00;;;;;;;7.13;3.70;;;9.70;99.90;;;;;;4966184;28;20243;-90
2023/02/03 05:00:27;;;;;;;6.47;3.97;;;9.70;99.90;;;;;;4971267;28;20620;-90
2023/02/03 05:02:56;;;;;;;5.73;3.37;;;9.70;99.90;;;;;;4973690;28;20534;-90
2023/02/03 05:05:21;;;;;;;7.83;3.00;;;9.70;99.90;;;;;;4979374;28;20611;-90
2023/02/03 05:07:47;;;;;;;5.13;3.47;;;9.70;99.90;;;;;;4969382;28;20499;-90
2023/02/03 05:10:12;;;;;;;8.30;3.00;;;9.70;99.90;;;;;;4969432;28;20180;-90
2023/02/03 05:12:40;;;;;;;8.10;3.40;;;9.70;99.90;;;;;;4970867;28;20669;-90
2023/02/03 05:15:09;;;;;;;10.47;3.60;;;9.70;99.90;;;;;;4975714;28;20723;-91
2023/02/03 05:17:38;;;;;;;6.83;2.87;;;9.60;99.90;;;;;;4975256;28;20439;-90
2023/02/03 05:20:08;;;;;;;8.07;3.13;;;9.70;99.90;;;;;;4969190;28;20519;-89
2023/02/03 05:22:34;;;;;;;6.00;3.80;;;9.70;99.90;;;;;;4971618;28;20523;-90
2023/02/03 05:25:00;;;;;;;8.77;2.60;;;9.70;99.90;;;;;;4970534;28;20475;-90
2023/02/03 05:27:26;;;;;;;5.63;2.77;;;9.70;99.90;;;;;;4975808;28;20439;-90
2023/02/03 05:29:51;;;;;;;9.50;2.70;;;9.70;99.90;;;;;;4971851;28;20598;-89
2023/02/03 05:32:17;;;;;;;9.17;2.83;;;9.70;99.90;;;;;;4971314;28;20941;-91
2023/02/03 05:34:42;;;;;;;6.93;2.97;;;9.70;99.90;;;;;;4971419;28;20295;-89
2023/02/03 05:37:08;;;;;;;8.33;3.10;;;9.70;99.90;;;;;;4971890;28;20188;-91
2023/02/03 05:39:37;;;;;;;8.97;3.00;;;9.70;99.90;;;;;;4972961;28;20212;-91
2023/02/03 05:42:03;;;;;;;6.30;2.90;;;9.70;76.30;;;;;;4971923;28;20271;-90
2023/02/03 05:44:31;;;;;;;9.63;2.30;;;9.70;59.70;;;;;;4976217;28;20467;-90
2023/02/03 05:46:58;;;;;;;12.83;2.87;;;9.70;37.60;;;;;;4973223;28;20518;-90
2023/02/03 05:49:27;;;;;;;5.03;2.70;;;9.70;31.70;;;;;;4972265;28;20790;-89
2023/02/03 05:51:56;;;;;;;7.83;2.63;;;9.70;24.40;;;;;;4973259;28;20430;-89
2023/02/03 05:54:22;;;;;;;6.50;2.60;;;9.70;1.80;;;;;;4970631;28;20498;-90
2023/02/03 05:56:50;;;;;;;7.97;2.40;;;9.70;1.00;;;;;;4992518;28;20455;-92
2023/02/03 05:59:16;;;;;;;5.20;2.50;;;9.70;1.00;;;;;;4998376;28;20183;-90
2023/02/03 06:01:42;;;;;;;10.33;2.60;;;9.70;1.00;;;;;;4977812;28;20456;-91
2023/02/03 06:04:07;;;;;;;5.77;2.23;;;9.70;1.00;;;;;;4971764;28;21077;-91
2023/02/03 06:06:33;;;;;;;3.63;2.53;;;9.70;1.00;;;;;;4970414;28;20622;-90
2023/02/03 06:09:03;;;;;;;8.07;2.77;;;9.70;1.00;;;;;;4969873;28;20180;-90
2023/02/03 06:11:32;;;;;;;9.97;2.30;;;9.70;1.00;;;;;;4978659;28;20185;-89
2023/02/03 06:13:59;;;;;;;10.07;2.63;;;9.70;1.00;;;;;;4970201;28;20509;-90
2023/02/03 06:16:25;;;;;;;6.53;2.30;;;9.60;2.50;;;;;;4971514;28;20475;-90
2023/02/03 06:18:58;;;;;;;7.77;2.27;;;9.60;6.70;;;;;;4975550;28;20447;-91
2023/02/03 06:21:24;;;;;;;6.00;1.70;;;9.60;13.20;;;;;;4968682;28;20445;-89
2023/02/03 06:23:49;;;;;;;6.63;1.67;;;9.60;27.10;;;;;;4971257;28;20832;-90
2023/02/03 06:26:15;;;;;;;12.17;2.50;;;9.60;12.30;;;;;;4970433;28;20215;-90
2023/02/03 06:28:41;;;;;;;8.40;1.73;;;9.60;21.30;;;;;;4970962;28;20526;-90
2023/02/03 06:31:06;;;;;;;6.10;2.67;;;9.60;27.30;;;;;;4970345;28;20640;-90
2023/02/03 06:33:32;;;;;;;6.13;1.97;;;9.60;17.60;;;;;;4968359;28;20208;-89
2023/02/03 06:35:58;;;;;;;6.30;2.20;;;9.60;13.10;;;;;;4962627;28;20239;-90
2023/02/03 06:38:24;;;;;;;8.47;2.33;;;9.70;10.00;;;;;;4970262;28;20458;-91
2023/02/03 06:40:50;;;;;;;5.57;2.00;;;9.60;3.60;;;;;;4970005;28;20923;-91
2023/02/03 06:43:19;;;;;;;2.50;1.43;;;9.70;1.00;;;;;;4969967;28;20224;-91
2023/02/03 06:45:46;;;;;;;7.40;2.27;;;9.60;1.00;;;;;;4975359;28;20519;-90
2023/02/03 06:48:11;;;;;;;8.87;2.20;;;9.60;1.00;;;;;;4983148;28;20442;-90
2023/02/03 06:50:39;;;;;;;10.63;1.80;;;9.70;1.00;;;;;;4981468;28;20455;-90
2023/02/03 06:53:05;;;;;;;5.70;2.03;;;9.70;1.00;;;;;;4972234;28;20745;-90
2023/02/03 06:55:31;;;;;;;4.10;2.00;;;9.70;1.00;;;;;;4973991;28;20530;-90
2023/02/03 06:58:02;;;;;;;7.07;2.30;;;9.70;1.00;;;;;;4970569;28;20207;-91
2023/02/03 07:00:31;;;;;;;7.10;2.40;;;9.70;1.00;;;;;;4997534;28;20185;-91
2023/02/03 07:02:58;;;;;;;8.90;2.60;;;9.70;1.00;;;;;;4990690;28;20426;-90
2023/02/03 07:05:24;;;;;;;4.07;1.97;;;9.70;1.00;;;;;;4973643;28;20550;-90
2023/02/03 07:07:57;;;;;;;7.87;2.93;;;9.70;1.00;;;;;;4961478;28;20549;-90
2023/02/03 07:10:32;;;;;;;7.87;2.47;;;9.70;1.00;;;;;;4978440;28;20493;-90
2023/02/03 07:13:10;;;;;;;4.23;1.93;;;9.80;1.00;;;;;;4987659;28;20430;-89
2023/02/03 07:15:42;;;;;;;8.53;1.80;;;9.80;1.00;;;;;;4968715;28;20446;-90
2023/02/03 07:18:08;;;;;;;5.60;2.83;;;9.90;99.90;;;;;;4972930;28;20546;-89
2023/02/03 07:21:03;;;;;;;4.33;1.60;;;9.90;99.90;;;;;;4972955;28;21078;-89
2023/02/03 07:23:38;;;;;;;;;;;;;;;;;;;;;
2023/02/03 07:26:11;;;;;;;5.50;1.70;;;9.90;99.90;;;;;;4988475;28;20992;-90
2023/02/03 07:28:57;;;;;;;4.77;2.03;;;9.90;99.90;;;;;;4992256;28;20510;-88
2023/02/03 07:31:22;;;;;;;4.80;1.60;;;9.90;32.90;;;;;;4994127;28;20429;-89
2023/02/03 07:33:48;;;;;;;6.10;1.80;;;9.90;5.10;;;;;;5003613;28;20992;-88
2023/02/03 07:36:14;;;;;;;11.30;2.07;;;9.90;1.00;;;;;;4995878;28;20195;-88
2023/02/03 07:38:43;;;;;;;4.57;1.47;;;10.00;1.00;;;;;;4987881;28;20196;-88
2023/02/03 07:41:11;;;;;;;5.20;1.50;;;10.00;1.00;;;;;;4991709;28;20438;-89
2023/02/03 07:43:37;;;;;;;3.87;1.70;;;10.00;1.00;;;;;;4986889;28;20462;-87
2023/02/03 07:46:03;;;;;;;7.50;1.87;;;10.00;1.00;;;;;;4987755;28;21002;-89
2023/02/03 07:48:28;;;;;;;4.63;2.00;;;10.00;1.00;;;;;;4989537;28;20204;-89
2023/02/03 07:50:54;;;;;;;5.47;1.67;;;10.00;99.90;;;;;;4988924;28;20954;-88
2023/02/03 07:53:20;;;;;;;9.43;2.00;;;10.00;99.90;;;;;;4989686;28;20196;-88
2023/02/03 07:55:49;;;;;;;3.70;1.70;;;10.10;99.90;;;;;;4988930;28;20558;-88
2023/02/03 07:58:15;;;;;;;6.17;1.60;;;10.10;99.90;;;;;;4987101;28;20183;-88
2023/02/03 08:00:41;;;;;;;8.17;1.83;;;10.10;99.90;;;;;;4987429;28;20442;-88
2023/02/03 08:03:07;;;;;;;9.17;2.27;;;10.10;99.90;;;;;;4991791;28;20434;-88
2023/02/03 08:05:41;;;;;;;5.03;2.20;;;10.10;99.90;;;;;;4987833;28;20211;-88
2023/02/03 08:08:07;;;;;;;8.80;1.97;;;10.10;99.90;;;;;;4993433;28;20187;-89
2023/02/03 08:10:32;;;;;;;7.43;1.97;;;10.10;62.40;;;;;;4985648;28;20493;-89
2023/02/03 08:12:58;;;;;;;5.40;2.10;;;10.10;1.00;;;;;;4985814;28;20179;-88
2023/02/03 08:15:26;;;;;;;5.43;1.93;;;10.10;50.20;;;;;;4982616;28;20246;-88
2023/02/03 08:17:54;;;;;;;5.50;2.00;;;10.10;1.00;;;;;;4983760;28;20574;-88
2023/02/03 08:20:20;;;;;;;4.10;1.53;;;10.10;1.00;;;;;;4992530;28;20447;-88
2023/02/03 08:22:59;;;;;;;12.50;2.30;;;10.10;1.00;;;;;;4989441;28;20443;-88
2023/02/03 08:25:30;;;;;;;3.30;1.90;;;10.10;1.00;;;;;;4976347;28;20510;-88
2023/02/03 08:28:02;;;;;;;4.77;2.73;;;10.10;99.90;;;;;;4977832;28;20455;-88
2023/02/03 08:30:44;;;;;;;8.30;2.07;;;10.20;99.90;;;;;;4988375;28;20443;-89
2023/02/03 08:33:09;;;;;;;5.47;1.57;;;10.20;99.90;;;;;;4990968;28;20493;-89
2023/02/03 08:35:38;;;;;;;6.70;2.43;;;10.20;99.90;;;;;;4982868;28;20447;-88
2023/02/03 08:38:04;;;;;;;5.20;1.67;;;10.30;14.30;;;;;;4985063;28;20208;-88
2023/02/03 08:40:30;;;;;;;5.60;1.80;;;10.30;1.00;;;;;;4982339;28;20466;-89
2023/02/03 08:42:55;;;;;;;2.93;2.00;;;10.30;1.00;;;;;;4995320;28;20198;-89
2023/02/03 08:45:21;;;;;;;4.57;1.57;;;10.30;1.00;;;;;;4985196;28;20226;-89
2023/02/03 08:47:47;;;;;;;5.70;1.77;;;10.30;1.00;;;;;;4988624;28;20223;-89
2023/02/03 08:50:12;;;;;;;9.43;2.60;;;10.30;1.00;;;;;;4993205;28;20309;-89
2023/02/03 08:52:48;;;;;;;3.37;1.57;;;10.30;1.00;;;;;;4992221;28;20648;-89
2023/02/03 09:19:56;;;;;;;8.87;2.20;;;10.40;20.60;;;;;;4967069;28;20522;-88
2023/02/03 09:34:02;;;;;;;5.73;3.30;;;10.30;99.90;;;;;;5121618;23;20508;-87
2023/02/03 09:36:34;;;;;;;5.27;3.67;;;10.30;99.90;;;;;;4948493;28;20448;-89
2023/02/03 09:39:00;;;;;;;6.60;2.70;;;10.30;99.90;;;;;;4945788;28;20452;-89
2023/02/03 09:42:13;;;;;;;5.47;3.20;;;10.30;1.00;;;;;;4953778;28;20472;-89
2023/02/03 09:44:46;;;;;;;9.70;3.67;;;10.20;1.00;;;;;;4960867;28;20216;-89
2023/02/03 09:47:17;;;;;;;13.70;5.37;;;10.20;1.00;;;;;;4951810;28;20479;-90
2023/02/03 09:49:59;;;;;;;11.30;5.20;;;10.20;89.30;;;;;;4957923;28;20444;-89
2023/02/03 09:52:32;;;;;;;8.77;5.77;;;10.20;99.90;;;;;;4953133;28;20524;-89
2023/02/03 09:55:14;;;;;;;7.23;4.20;;;10.20;99.90;;;;;;4944978;28;20524;-89
2023/02/03 09:58:26;;;;;;;11.67;4.70;;;10.20;1.00;;;;;;4957223;28;20442;-89
2023/02/03 10:01:28;;;;;;;9.23;3.10;;;10.20;1.00;;;;;;4953404;28;20470;-89
2023/02/03 10:04:23;;;;;;;7.00;3.53;;;10.10;1.00;;;;;;4947151;28;20968;-89
2023/02/03 10:07:13;;;;;;;6.40;3.80;;;10.10;93.30;;;;;;4963593;28;20475;-90
2023/02/03 10:09:45;;;;;;;12.27;4.13;;;10.10;99.90;;;;;;4960591;28;20793;-90
2023/02/03 10:13:00;;;;;;;7.83;4.87;;;10.10;99.90;;;;;;4946395;29;20483;-90
2023/02/03 10:15:56;;;;;;;12.93;6.23;;;10.10;99.90;;;;;;4950845;28;20562;-89
2023/02/03 10:18:52;;;;;;;10.17;4.73;;;10.10;99.90;;;;;;4963059;28;20416;-89
2023/02/03 10:21:41;;;;;;;12.20;6.00;;;10.10;99.90;;;;;;4958096;28;20439;-89
2023/02/03 10:24:16;;;;;;;9.10;6.67;;;10.10;99.90;;;;;;4933777;29;20522;-87
2023/02/03 10:26:42;;;;;;;6.73;5.33;;;10.10;99.90;;;;;;4960931;28;20496;-87
2023/02/03 10:29:15;;;;;;;10.80;6.90;;;10.10;1.00;;;;;;4950892;28;20445;-86
2023/02/03 10:31:42;;;;;;;11.67;7.40;;;10.10;1.00;;;;;;4952880;28;20185;-86
2023/02/03 10:34:13;;;;;;;8.80;6.77;;;10.10;1.00;;;;;;4954344;28;20994;-86
2023/02/03 10:36:42;;;;;;;13.77;6.30;;;10.10;1.00;;;;;;4956581;28;20440;-88
2023/02/03 10:39:13;;;;;;;7.47;5.40;;;10.10;1.00;;;;;;4952113;28;20465;-83
2023/02/03 10:41:39;;;;;;;8.07;4.90;;;10.10;1.00;;;;;;4959823;28;20436;-83
2023/02/03 10:44:06;;;;;;;10.20;6.03;;;10.10;1.00;;;;;;4955517;28;20865;-90
2023/02/03 10:46:44;;;;;;;10.73;5.93;;;10.10;1.00;;;;;;4948486;28;20209;-90
2023/02/03 10:49:22;;;;;;;10.27;5.43;;;10.10;1.00;;;;;;4952166;28;20428;-89
2023/02/03 10:52:03;;;;;;;8.33;5.50;;;10.10;1.00;;;;;;4946039;28;20445;-87
2023/02/03 10:55:08;;;;;;;14.03;5.87;;;10.10;1.00;;;;;;4952258;28;20528;-89
2023/02/03 11:00:34;;;;;;;8.13;6.30;;;10.20;1.00;;;;;;4951115;28;20451;-91
2023/02/03 11:06:28;;;;;;;17.30;9.57;;;10.30;1.00;;;;;;4966215;28;20959;-88
2023/02/03 11:09:20;;;;;;;12.27;7.23;;;10.30;1.00;;;;;;4964181;28;20436;-86
2023/02/03 11:23:58;;;;;;;;;;;;;;;;;;;;;
2023/02/03 11:27:03;;;;;;;;;;;;;;;;;;;;;
2023/02/03 11:30:44;;;;;;;12.43;7.17;;;10.60;1.00;;;;;;4945456;28;20439;-88
2023/02/03 11:34:08;;;;;;;15.53;7.03;;;10.60;1.00;;;;;;4909924;29;20872;-88
2023/02/03 11:37:09;;;;;;;23.63;7.30;;;10.60;1.00;;;;;;4896826;29;20457;-88
2023/02/03 11:40:17;;;;;;;11.87;7.80;;;10.60;99.90;;;;;;4906715;29;20464;-87
2023/02/03 11:47:15;;;;;;;9.87;7.47;;;10.60;99.90;;;;;;4949081;28;20548;-88
2023/02/03 11:50:15;;;;;;;9.90;6.77;;;10.60;99.90;;;;;;4943776;28;20436;-88
2023/02/03 11:56:27;;;;;;;12.70;7.80;;;10.50;99.90;;;;;;4951113;28;21200;-88
2023/02/03 11:59:23;;;;;;;12.77;8.50;;;10.50;99.90;;;;;;4954973;28;20436;-87
2023/02/03 12:06:03;;;;;;;;;;;;;;;;;;;;;
2023/02/03 12:09:10;;;;;;;22.93;9.33;;;10.60;99.90;;;;;;4954606;28;20781;-88
2023/02/03 12:11:58;;;;;;;13.17;8.73;;;10.60;99.90;;;;;;4858112;29;20948;-88
2023/02/03 12:14:46;;;;;;;11.40;8.30;;;10.60;99.90;;;;;;4865370;28;21190;-88
2023/02/03 12:20:45;;;;;;;10.30;7.40;;;10.70;99.90;;;;;;4949111;28;20440;-88
2023/02/03 12:23:55;;;;;;;16.30;9.33;;;10.70;99.90;;;;;;4972982;28;20525;-87
2023/02/03 12:26:56;;;;;;;18.20;9.07;;;10.70;99.90;;;;;;4956478;28;20456;-87
2023/02/03 12:29:47;;;;;;;10.13;8.50;;;10.80;99.90;;;;;;4970275;28;20432;-87
2023/02/03 12:32:54;;;;;;;14.57;10.20;;;10.80;99.90;;;;;;4969363;28;20442;-87
2023/02/03 12:36:06;;;;;;;11.30;9.27;;;10.80;99.90;;;;;;4927976;28;21068;-87
2023/02/03 12:38:42;;;;;;;13.43;10.20;;;10.90;99.90;;;;;;4952703;28;20455;-88
2023/02/03 12:41:25;;;;;;;12.73;9.77;;;10.90;78.10;;;;;;4952191;28;20444;-87
2023/02/03 12:44:20;;;;;;;11.90;8.83;;;11.00;12.60;;;;;;4969673;28;20447;-87
2023/02/03 12:47:53;;;;;;;17.10;9.23;;;11.00;1.00;;;;;;4942716;28;20870;-87
2023/02/03 12:50:43;;;;;;;9.90;8.60;;;11.00;1.00;;;;;;4960963;28;20478;-87
2023/02/03 12:53:17;;;;;;;15.70;10.17;;;11.00;1.00;;;;;;4954131;28;20464;-87
2023/02/03 12:56:28;;;;;;;11.30;10.07;;;11.10;1.00;;;;;;4960450;28;20475;-87
2023/02/03 12:59:12;;;;;;;10.77;7.67;;;11.10;1.00;;;;;;4934030;28;20435;-87
2023/02/03 13:02:03;;;;;;;15.80;9.97;;;11.10;99.90;;;;;;4967420;28;20514;-87
2023/02/03 13:05:39;;;;;;;15.70;11.90;;;11.10;99.90;;;;;;4974027;28;20457;-88
2023/02/03 13:08:50;;;;;;;11.70;8.50;;;11.10;99.90;;;;;;4941577;28;20816;-86
2023/02/03 13:11:51;;;;;;;16.27;8.83;;;11.10;99.90;;;;;;4945365;29;20450;-87
2023/02/03 13:14:42;;;;;;;8.50;6.47;;;11.00;99.90;;;;;;4967004;28;20490;-87
2023/02/03 13:20:43;;;;;;;9.00;7.47;;;11.00;1.00;;;;;;4955576;28;20455;-86
2023/02/03 13:23:14;;;;;;;15.03;12.27;;;11.00;99.90;;;;;;4943851;28;20460;-87
2023/02/03 13:26:13;;;;;;;11.50;8.63;;;11.00;99.90;;;;;;4975688;28;20501;-88
2023/02/03 13:29:38;;;;;;;20.33;16.30;;;11.00;1.00;;;;;;4964763;28;20436;-87
2023/02/03 13:32:44;;;;;;;11.27;9.90;;;11.00;1.00;;;;;;4949166;28;20455;-87
2023/02/03 13:35:49;;;;;;;10.80;5.83;;;11.00;1.00;;;;;;4962860;28;20455;-88
2023/02/03 13:41:52;;;;;;;13.33;7.80;;;11.00;1.00;;;;;;4952893;28;20452;-87
2023/02/03 13:44:38;;;;;;;6.87;5.50;;;10.90;1.00;;;;;;4962429;28;21443;-87
2023/02/03 13:47:45;;;;;;;11.37;6.33;;;10.90;1.00;;;;;;4963778;28;21115;-87
2023/02/03 13:54:23;;;;;;;9.17;4.60;;;10.90;63.40;;;;;;4895102;29;21094;-87
2023/02/03 13:57:01;;;;;;;6.10;4.40;;;11.00;71.50;;;;;;4917473;28;20456;-87
2023/02/03 13:59:44;;;;;;;9.00;5.30;;;11.00;17.80;;;;;;4950323;28;20448;-87
2023/02/03 14:02:18;;;;;;;13.73;4.27;;;11.00;3.60;;;;;;4961124;28;20445;-86
2023/02/03 14:04:57;;;;;;;9.83;5.30;;;11.00;1.00;;;;;;4961463;28;20468;-87
2023/02/03 14:07:40;;;;;;;9.00;5.73;;;11.10;1.00;;;;;;4963285;28;20884;-88
2023/02/03 14:10:12;;;;;;;10.97;4.37;;;11.20;1.00;;;;;;4944335;28;20814;-87
2023/02/03 14:13:28;;;;;;;;;;;;;;;;;;;;;
2023/02/03 14:16:22;;;;;;;10.50;4.23;;;11.30;1.00;;;;;;4948119;28;20974;-86
2023/02/03 14:18:48;;;;;;;8.93;4.67;;;11.40;99.90;;;;;;4951641;28;20535;-86
2023/02/03 14:21:35;;;;;;;12.50;4.97;;;11.40;99.90;;;;;;4952462;28;20909;-87
2023/02/03 14:31:01;;;;;;;12.83;4.57;;;11.60;1.00;;;;;;4932737;29;20824;-87
2023/02/03 14:34:14;;;;;;;9.93;6.00;;;11.70;1.00;;;;;;4926723;29;20457;-86
2023/02/03 14:40:19;;;;;;;8.00;4.20;;;11.80;1.00;;;;;;4947282;28;20437;-89
2023/02/03 14:43:41;;;;;;;;;;;;;;;;;;;;;
2023/02/03 14:46:46;;;;;;;4.70;3.83;;;11.90;1.00;;;;;;4946078;28;20473;-87
2023/02/03 14:49:47;;;;;;;8.70;5.13;;;12.00;1.00;;;;;;4960752;28;20627;-87
2023/02/03 14:52:19;;;;;;;9.03;5.60;;;12.20;1.00;;;;;;4966708;28;20448;-87
2023/02/03 14:54:49;;;;;;;5.17;4.50;;;12.20;99.90;;;;;;4950974;28;20485;-87
2023/02/03 14:57:43;;;;;;;10.60;4.90;;;12.20;1.00;;;;;;4950337;29;20456;-87
2023/02/03 15:00:21;;;;;;;14.57;5.47;;;12.20;21.40;;;;;;4958822;28;20481;-87
2023/02/03 15:05:46;;;;;;;11.00;4.77;;;12.30;1.00;;;;;;5037289;23;20526;-87
2023/02/03 15:08:49;;;;;;;11.53;5.53;;;12.30;99.90;;;;;;4985533;28;20439;-86
2023/02/03 15:11:42;;;;;;;6.97;4.27;;;12.20;99.90;;;;;;4997126;28;21001;-87
2023/02/03 15:14:43;;;;;;;6.93;5.20;;;12.10;99.90;;;;;;4980223;28;20458;-87
2023/02/03 15:17:30;;;;;;;6.90;4.13;;;12.00;1.00;;;;;;4974772;28;20433;-87
2023/02/03 15:20:42;;;;;;;8.20;4.70;;;11.80;63.40;;;;;;4967446;28;20878;-88